sensor_id;sensor_type;location;lat;lon;timestamp;P1;durP1;ratioP1;P2;durP2;ratioP2
36789;SDS011;22740;52.182;8.780;2023-01-16T00:01:07;5.75;;;0.80;;
36789;SDS011;22740;52.182;8.780;2023-01-16T00:07:09;8.50;;;1.90;;
36789;SDS011;22740;52.182;8.780;2023-01-16T00:13:12;4.78;;;0.82;;
36789;SDS011;22740;52.182;8.780;2023-01-16T00:19:14;8.40;;;0.90;;
36789;SDS011;22740;52.182;8.780;2023-01-16T00:25:15;5.90;;;0.80;;
36789;SDS011;22740;52.182;8.780;2023-01-16T00:31:18;3.75;;;0.60;;
36789;SDS011;22740;52.182;8.780;2023-01-16T00:37:20;2.40;;;0.60;;
36789;SDS011;22740;52.182;8.780;2023-01-16T00:43:22;2.35;;;0.60;;
36789;SDS011;22740;52.182;8.780;2023-01-16T00:49:24;4.72;;;0.70;;
36789;SDS011;22740;52.182;8.780;2023-01-16T00:55:26;3.42;;;0.50;;
36789;SDS011;22740;52.182;8.780;2023-01-16T01:01:28;1.67;;;0.50;;
36789;SDS011;22740;52.182;8.780;2023-01-16T01:07:30;2.92;;;0.55;;
36789;SDS011;22740;52.182;8.780;2023-01-16T01:13:31;4.80;;;0.70;;
36789;SDS011;22740;52.182;8.780;2023-01-16T01:19:33;2.65;;;0.70;;
36789;SDS011;22740;52.182;8.780;2023-01-16T01:25:37;3.13;;;0.50;;
36789;SDS011;22740;52.182;8.780;2023-01-16T01:31:39;3.65;;;0.50;;
36789;SDS011;22740;52.182;8.780;2023-01-16T01:37:41;3.00;;;0.55;;
36789;SDS011;22740;52.182;8.780;2023-01-16T01:49:45;3.47;;;0.88;;
36789;SDS011;22740;52.182;8.780;2023-01-16T01:55:48;5.85;;;1.15;;
36789;SDS011;22740;52.182;8.780;2023-01-16T02:01:51;4.53;;;0.70;;
36789;SDS011;22740;52.182;8.780;2023-01-16T02:07:55;1.30;;;0.55;;
36789;SDS011;22740;52.182;8.780;2023-01-16T02:14:00;5.57;;;1.00;;
36789;SDS011;22740;52.182;8.780;2023-01-16T02:20:16;3.55;;;0.68;;
36789;SDS011;22740;52.182;8.780;2023-01-16T02:45:27;4.47;;;0.50;;
36789;SDS011;22740;52.182;8.780;2023-01-16T02:51:34;3.85;;;0.68;;
36789;SDS011;22740;52.182;8.780;2023-01-16T02:58:00;2.58;;;0.50;;
36789;SDS011;22740;52.182;8.780;2023-01-16T03:04:51;1.40;;;0.30;;
36789;SDS011;22740;52.182;8.780;2023-01-16T03:17:17;2.85;;;0.50;;
36789;SDS011;22740;52.182;8.780;2023-01-16T03:23:39;2.70;;;0.50;;
36789;SDS011;22740;52.182;8.780;2023-01-16T03:29:54;5.68;;;1.10;;
36789;SDS011;22740;52.182;8.780;2023-01-16T03:36:10;2.55;;;0.60;;
36789;SDS011;22740;52.182;8.780;2023-01-16T03:42:18;3.45;;;0.60;;
36789;SDS011;22740;52.182;8.780;2023-01-16T03:48:28;3.28;;;0.52;;
36789;SDS011;22740;52.182;8.780;2023-01-16T04:01:37;3.08;;;0.50;;
36789;SDS011;22740;52.182;8.780;2023-01-16T04:13:59;4.25;;;0.60;;
36789;SDS011;22740;52.182;8.780;2023-01-16T04:20:02;3.72;;;0.50;;
36789;SDS011;22740;52.182;8.780;2023-01-16T04:26:06;3.35;;;0.70;;
36789;SDS011;22740;52.182;8.780;2023-01-16T04:32:08;3.13;;;0.50;;
36789;SDS011;22740;52.182;8.780;2023-01-16T04:38:10;3.15;;;0.75;;
36789;SDS011;22740;52.182;8.780;2023-01-16T04:44:13;2.92;;;0.65;;
36789;SDS011;22740;52.182;8.780;2023-01-16T04:50:15;3.00;;;0.65;;
36789;SDS011;22740;52.182;8.780;2023-01-16T04:56:17;4.68;;;0.70;;
36789;SDS011;22740;52.182;8.780;2023-01-16T05:02:19;2.22;;;0.40;;
36789;SDS011;22740;52.182;8.780;2023-01-16T05:08:21;6.25;;;0.85;;
36789;SDS011;22740;52.182;8.780;2023-01-16T05:14:26;1.70;;;0.55;;
36789;SDS011;22740;52.182;8.780;2023-01-16T05:20:28;3.10;;;0.60;;
36789;SDS011;22740;52.182;8.780;2023-01-16T05:26:30;2.45;;;0.47;;
36789;SDS011;22740;52.182;8.780;2023-01-16T05:32:33;2.20;;;0.52;;
36789;SDS011;22740;52.182;8.780;2023-01-16T05:38:35;1.88;;;0.60;;
36789;SDS011;22740;52.182;8.780;2023-01-16T05:44:36;4.95;;;0.80;;
36789;SDS011;22740;52.182;8.780;2023-01-16T05:50:38;4.35;;;0.95;;
36789;SDS011;22740;52.182;8.780;2023-01-16T05:56:40;2.83;;;0.93;;
36789;SDS011;22740;52.182;8.780;2023-01-16T06:02:43;3.45;;;0.65;;
36789;SDS011;22740;52.182;8.780;2023-01-16T06:08:47;3.80;;;0.83;;
36789;SDS011;22740;52.182;8.780;2023-01-16T06:14:49;1.88;;;0.55;;
36789;SDS011;22740;52.182;8.780;2023-01-16T06:20:51;3.58;;;0.70;;
36789;SDS011;22740;52.182;8.780;2023-01-16T06:26:53;2.10;;;0.80;;
36789;SDS011;22740;52.182;8.780;2023-01-16T06:32:55;3.75;;;0.63;;
36789;SDS011;22740;52.182;8.780;2023-01-16T06:38:57;1.42;;;0.50;;
36789;SDS011;22740;52.182;8.780;2023-01-16T06:44:59;1.98;;;0.50;;
36789;SDS011;22740;52.182;8.780;2023-01-16T06:51:00;4.10;;;0.50;;
36789;SDS011;22740;52.182;8.780;2023-01-16T06:57:02;2.22;;;0.70;;
36789;SDS011;22740;52.182;8.780;2023-01-16T07:03:04;1.02;;;0.43;;
36789;SDS011;22740;52.182;8.780;2023-01-16T07:09:06;2.13;;;0.70;;
36789;SDS011;22740;52.182;8.780;2023-01-16T07:15:08;1.50;;;0.70;;
36789;SDS011;22740;52.182;8.780;2023-01-16T07:21:29;2.45;;;0.77;;
36789;SDS011;22740;52.182;8.780;2023-01-16T07:27:50;3.20;;;0.82;;
36789;SDS011;22740;52.182;8.780;2023-01-16T07:33:54;7.22;;;1.00;;
36789;SDS011;22740;52.182;8.780;2023-01-16T07:39:56;3.45;;;0.90;;
36789;SDS011;22740;52.182;8.780;2023-01-16T07:45:57;2.80;;;1.02;;
36789;SDS011;22740;52.182;8.780;2023-01-16T07:51:59;2.42;;;0.93;;
36789;SDS011;22740;52.182;8.780;2023-01-16T07:58:01;3.47;;;1.00;;
36789;SDS011;22740;52.182;8.780;2023-01-16T08:04:03;4.97;;;1.20;;
36789;SDS011;22740;52.182;8.780;2023-01-16T08:10:05;2.67;;;1.08;;
36789;SDS011;22740;52.182;8.780;2023-01-16T08:16:07;4.47;;;1.30;;
36789;SDS011;22740;52.182;8.780;2023-01-16T08:22:09;5.60;;;1.40;;
36789;SDS011;22740;52.182;8.780;2023-01-16T08:28:11;3.22;;;1.05;;
36789;SDS011;22740;52.182;8.780;2023-01-16T08:34:13;3.95;;;1.30;;
36789;SDS011;22740;52.182;8.780;2023-01-16T08:40:15;3.85;;;1.42;;
36789;SDS011;22740;52.182;8.780;2023-01-16T08:46:19;2.78;;;1.17;;
36789;SDS011;22740;52.182;8.780;2023-01-16T08:52:42;3.20;;;1.07;;
36789;SDS011;22740;52.182;8.780;2023-01-16T08:58:45;2.97;;;1.10;;
36789;SDS011;22740;52.182;8.780;2023-01-16T09:04:47;3.50;;;1.00;;
36789;SDS011;22740;52.182;8.780;2023-01-16T09:10:49;4.28;;;1.05;;
36789;SDS011;22740;52.182;8.780;2023-01-16T09:17:10;5.55;;;1.30;;
36789;SDS011;22740;52.182;8.780;2023-01-16T09:23:12;5.57;;;1.17;;
36789;SDS011;22740;52.182;8.780;2023-01-16T09:29:13;3.40;;;0.88;;
36789;SDS011;22740;52.182;8.780;2023-01-16T09:35:15;2.70;;;0.90;;
36789;SDS011;22740;52.182;8.780;2023-01-16T09:41:18;4.43;;;1.00;;
36789;SDS011;22740;52.182;8.780;2023-01-16T09:47:40;3.35;;;0.70;;
36789;SDS011;22740;52.182;8.780;2023-01-16T10:00:18;3.13;;;0.82;;
36789;SDS011;22740;52.182;8.780;2023-01-16T10:12:32;2.55;;;0.75;;
36789;SDS011;22740;52.182;8.780;2023-01-16T10:37:20;4.40;;;0.98;;
36789;SDS011;22740;52.182;8.780;2023-01-16T10:43:32;4.85;;;0.80;;
36789;SDS011;22740;52.182;8.780;2023-01-16T10:49:58;5.60;;;0.80;;
36789;SDS011;22740;52.182;8.780;2023-01-16T10:56:01;4.30;;;0.57;;
36789;SDS011;22740;52.182;8.780;2023-01-16T11:02:12;3.75;;;0.70;;
36789;SDS011;22740;52.182;8.780;2023-01-16T11:08:26;3.40;;;1.02;;
36789;SDS011;22740;52.182;8.780;2023-01-16T11:14:28;2.50;;;0.63;;
36789;SDS011;22740;52.182;8.780;2023-01-16T11:20:52;2.95;;;0.60;;
36789;SDS011;22740;52.182;8.780;2023-01-16T11:26:54;2.88;;;0.65;;
36789;SDS011;22740;52.182;8.780;2023-01-16T11:32:58;4.72;;;0.70;;
36789;SDS011;22740;52.182;8.780;2023-01-16T11:39:00;4.00;;;0.77;;
36789;SDS011;22740;52.182;8.780;2023-01-16T11:45:10;2.83;;;0.40;;
36789;SDS011;22740;52.182;8.780;2023-01-16T11:51:36;1.70;;;0.47;;
36789;SDS011;22740;52.182;8.780;2023-01-16T11:57:47;1.42;;;0.40;;
36789;SDS011;22740;52.182;8.780;2023-01-16T12:04:16;2.63;;;0.50;;
36789;SDS011;22740;52.182;8.780;2023-01-16T12:10:35;2.33;;;0.70;;
36789;SDS011;22740;52.182;8.780;2023-01-16T12:48:57;2.50;;;0.32;;
36789;SDS011;22740;52.182;8.780;2023-01-16T13:01:35;0.50;;;0.20;;
36789;SDS011;22740;52.182;8.780;2023-01-16T13:07:44;1.27;;;0.43;;
36789;SDS011;22740;52.182;8.780;2023-01-16T13:13:52;1.45;;;0.30;;
36789;SDS011;22740;52.182;8.780;2023-01-16T13:19:59;2.17;;;0.63;;
36789;SDS011;22740;52.182;8.780;2023-01-16T13:26:06;0.98;;;0.30;;
36789;SDS011;22740;52.182;8.780;2023-01-16T13:32:25;1.27;;;0.30;;
36789;SDS011;22740;52.182;8.780;2023-01-16T13:44:58;0.82;;;0.30;;
36789;SDS011;22740;52.182;8.780;2023-01-16T13:51:22;1.23;;;0.43;;
36789;SDS011;22740;52.182;8.780;2023-01-16T13:57:27;3.38;;;0.30;;
36789;SDS011;22740;52.182;8.780;2023-01-16T14:03:30;1.02;;;0.30;;
36789;SDS011;22740;52.182;8.780;2023-01-16T14:22:41;1.20;;;0.30;;
36789;SDS011;22740;52.182;8.780;2023-01-16T14:29:05;1.95;;;0.20;;
36789;SDS011;22740;52.182;8.780;2023-01-16T14:35:21;2.13;;;0.45;;
36789;SDS011;22740;52.182;8.780;2023-01-16T14:41:32;0.93;;;0.40;;
36789;SDS011;22740;52.182;8.780;2023-01-16T14:48:37;4.00;;;1.13;;
36789;SDS011;22740;52.182;8.780;2023-01-16T14:54:42;2.72;;;0.40;;
36789;SDS011;22740;52.182;8.780;2023-01-16T15:01:03;3.53;;;0.50;;
36789;SDS011;22740;52.182;8.780;2023-01-16T15:07:43;1.40;;;0.40;;
36789;SDS011;22740;52.182;8.780;2023-01-16T15:42:27;0.65;;;0.40;;
36789;SDS011;22740;52.182;8.780;2023-01-16T15:48:54;1.02;;;0.40;;
36789;SDS011;22740;52.182;8.780;2023-01-16T15:55:34;1.98;;;0.50;;
36789;SDS011;22740;52.182;8.780;2023-01-16T16:01:39;2.45;;;0.57;;
36789;SDS011;22740;52.182;8.780;2023-01-16T16:07:41;4.97;;;0.77;;
36789;SDS011;22740;52.182;8.780;2023-01-16T16:13:43;1.73;;;0.60;;
36789;SDS011;22740;52.182;8.780;2023-01-16T16:19:46;1.70;;;0.63;;
36789;SDS011;22740;52.182;8.780;2023-01-16T16:31:59;1.05;;;0.50;;
36789;SDS011;22740;52.182;8.780;2023-01-16T16:38:03;1.42;;;0.50;;
36789;SDS011;22740;52.182;8.780;2023-01-16T16:44:07;1.00;;;0.45;;
36789;SDS011;22740;52.182;8.780;2023-01-16T16:56:36;1.10;;;0.40;;
36789;SDS011;22740;52.182;8.780;2023-01-16T17:02:41;1.45;;;0.60;;
36789;SDS011;22740;52.182;8.780;2023-01-16T17:08:43;1.67;;;0.68;;
36789;SDS011;22740;52.182;8.780;2023-01-16T17:14:45;1.70;;;0.70;;
36789;SDS011;22740;52.182;8.780;2023-01-16T17:20:47;1.30;;;0.60;;
36789;SDS011;22740;52.182;8.780;2023-01-16T17:26:49;2.67;;;0.70;;
36789;SDS011;22740;52.182;8.780;2023-01-16T17:32:53;2.45;;;0.65;;
36789;SDS011;22740;52.182;8.780;2023-01-16T17:38:59;1.15;;;0.50;;
36789;SDS011;22740;52.182;8.780;2023-01-16T17:45:01;0.93;;;0.60;;
36789;SDS011;22740;52.182;8.780;2023-01-16T17:51:34;2.05;;;0.60;;
36789;SDS011;22740;52.182;8.780;2023-01-16T17:57:35;1.80;;;0.70;;
36789;SDS011;22740;52.182;8.780;2023-01-16T18:03:37;1.67;;;0.40;;
36789;SDS011;22740;52.182;8.780;2023-01-16T18:09:39;0.98;;;0.50;;
36789;SDS011;22740;52.182;8.780;2023-01-16T18:15:43;1.27;;;0.60;;
36789;SDS011;22740;52.182;8.780;2023-01-16T18:22:03;0.63;;;0.40;;
36789;SDS011;22740;52.182;8.780;2023-01-16T18:28:09;1.17;;;0.50;;
36789;SDS011;22740;52.182;8.780;2023-01-16T18:34:14;1.17;;;0.50;;
36789;SDS011;22740;52.182;8.780;2023-01-16T18:40:20;4.60;;;0.60;;
36789;SDS011;22740;52.182;8.780;2023-01-16T18:46:42;2.17;;;0.52;;
36789;SDS011;22740;52.182;8.780;2023-01-16T18:59:49;2.38;;;0.75;;
36789;SDS011;22740;52.182;8.780;2023-01-16T19:06:14;2.05;;;0.80;;
36789;SDS011;22740;52.182;8.780;2023-01-16T19:12:19;1.48;;;0.55;;
36789;SDS011;22740;52.182;8.780;2023-01-16T19:18:24;2.65;;;0.70;;
36789;SDS011;22740;52.182;8.780;2023-01-16T19:24:27;3.22;;;0.80;;
36789;SDS011;22740;52.182;8.780;2023-01-16T19:30:30;1.77;;;0.77;;
36789;SDS011;22740;52.182;8.780;2023-01-16T19:36:33;3.38;;;0.82;;
36789;SDS011;22740;52.182;8.780;2023-01-16T19:49:15;1.17;;;0.68;;
36789;SDS011;22740;52.182;8.780;2023-01-16T19:55:17;1.58;;;0.70;;
36789;SDS011;22740;52.182;8.780;2023-01-16T20:01:19;2.00;;;0.82;;
36789;SDS011;22740;52.182;8.780;2023-01-16T20:07:22;2.25;;;0.88;;
36789;SDS011;22740;52.182;8.780;2023-01-16T20:13:24;1.55;;;0.82;;
36789;SDS011;22740;52.182;8.780;2023-01-16T20:19:26;2.58;;;0.70;;
36789;SDS011;22740;52.182;8.780;2023-01-16T20:25:28;1.70;;;0.80;;
36789;SDS011;22740;52.182;8.780;2023-01-16T20:31:32;1.55;;;0.93;;
36789;SDS011;22740;52.182;8.780;2023-01-16T20:37:34;1.05;;;0.70;;
36789;SDS011;22740;52.182;8.780;2023-01-16T20:43:40;4.63;;;1.00;;
36789;SDS011;22740;52.182;8.780;2023-01-16T20:50:02;2.27;;;0.83;;
36789;SDS011;22740;52.182;8.780;2023-01-16T20:56:07;1.05;;;0.52;;
36789;SDS011;22740;52.182;8.780;2023-01-16T21:02:10;1.08;;;0.60;;
36789;SDS011;22740;52.182;8.780;2023-01-16T21:08:15;4.53;;;0.70;;
36789;SDS011;22740;52.182;8.780;2023-01-16T21:14:17;1.52;;;0.60;;
36789;SDS011;22740;52.182;8.780;2023-01-16T21:20:21;1.60;;;0.60;;
36789;SDS011;22740;52.182;8.780;2023-01-16T21:26:42;0.65;;;0.52;;
36789;SDS011;22740;52.182;8.780;2023-01-16T21:32:44;1.63;;;0.77;;
36789;SDS011;22740;52.182;8.780;2023-01-16T21:38:46;1.45;;;0.80;;
36789;SDS011;22740;52.182;8.780;2023-01-16T21:44:49;1.65;;;1.08;;
36789;SDS011;22740;52.182;8.780;2023-01-16T21:51:12;3.10;;;1.60;;
36789;SDS011;22740;52.182;8.780;2023-01-16T21:57:14;2.55;;;1.73;;
36789;SDS011;22740;52.182;8.780;2023-01-16T22:03:17;4.40;;;2.42;;
36789;SDS011;22740;52.182;8.780;2023-01-16T22:09:19;4.57;;;2.67;;
36789;SDS011;22740;52.182;8.780;2023-01-16T22:15:21;5.13;;;3.63;;
36789;SDS011;22740;52.182;8.780;2023-01-16T22:22:00;5.85;;;4.13;;
36789;SDS011;22740;52.182;8.780;2023-01-16T22:28:12;6.50;;;4.45;;
36789;SDS011;22740;52.182;8.780;2023-01-16T22:34:20;7.88;;;5.20;;
36789;SDS011;22740;52.182;8.780;2023-01-16T22:40:22;8.55;;;5.50;;
36789;SDS011;22740;52.182;8.780;2023-01-16T22:46:24;9.27;;;5.85;;
36789;SDS011;22740;52.182;8.780;2023-01-16T22:52:27;9.68;;;6.38;;
36789;SDS011;22740;52.182;8.780;2023-01-16T22:58:29;10.15;;;6.53;;
36789;SDS011;22740;52.182;8.780;2023-01-16T23:04:36;9.18;;;6.72;;
36789;SDS011;22740;52.182;8.780;2023-01-16T23:10:38;10.63;;;7.07;;
36789;SDS011;22740;52.182;8.780;2023-01-16T23:16:46;12.57;;;9.17;;
36789;SDS011;22740;52.182;8.780;2023-01-16T23:22:56;10.30;;;8.15;;
36789;SDS011;22740;52.182;8.780;2023-01-16T23:28:59;14.57;;;8.95;;
36789;SDS011;22740;52.182;8.780;2023-01-16T23:35:09;13.50;;;8.15;;
36789;SDS011;22740;52.182;8.780;2023-01-16T23:41:12;8.48;;;5.68;;
36789;SDS011;22740;52.182;8.780;2023-01-16T23:47:17;4.55;;;3.25;;
36789;SDS011;22740;52.182;8.780;2023-01-16T23:53:29;5.68;;;3.42;;
36789;SDS011;22740;52.182;8.780;2023-01-16T23:59:31;7.57;;;4.75;;
